Maple Valley, Washington
Current Conditions -  °F | °C
As of 1:53 PM on Monday 24 Nov 2014 (Local Time) from KRNT Reporting Station
Light Rain Light Rain  
Wind Chill: 46°   Ceiling: 4500
Heat Index: 46°   Visibility: 10mi
Dew Point: 40°   Wind: 3mph
Humidity: 79%   Direction: 150°SSE
Pressure: 30.24"   Gusts: NA
Location:  47.41°N, 122.04°W
Report Text: KRNT 242153Z 15003KT 10SM -RA OVC045 08/04 A3024 RMK AO2 RAB47 SLP244 P0000 T00780044
Loading
Personal Weather Stations






























Interactive Weather Map New forecast layout! Learn more

10-Day Weather Forecast

Advertisements
Track Severe Weather on mobile